createdAt,value
2018-04-14T00:01:28.799Z,7.43
2018-04-14T00:03:56.333Z,6.83
2018-04-14T00:06:23.863Z,8.00
2018-04-14T00:08:51.408Z,7.13
2018-04-14T00:11:18.995Z,7.83
2018-04-14T00:13:46.503Z,7.70
2018-04-14T00:16:14.252Z,8.37
2018-04-14T00:18:41.789Z,8.03
2018-04-14T00:21:09.333Z,8.03
2018-04-14T00:23:36.883Z,7.80
2018-04-14T00:26:04.454Z,8.33
2018-04-14T00:28:31.993Z,8.37
2018-04-14T00:30:59.519Z,9.57
2018-04-14T00:33:27.821Z,8.10
2018-04-14T00:35:55.341Z,8.90
2018-04-14T00:38:23.645Z,8.40
2018-04-14T00:40:51.269Z,9.40
2018-04-14T00:43:18.858Z,8.97
2018-04-14T00:45:46.377Z,10.10
2018-04-14T00:48:13.921Z,10.90
2018-04-14T00:50:41.451Z,11.27
2018-04-14T00:53:21.503Z,10.77
2018-04-14T00:55:49.796Z,10.90
2018-04-14T00:58:17.343Z,11.67
2018-04-14T01:00:44.871Z,11.93
2018-04-14T01:03:12.405Z,13.10
2018-04-14T01:05:40.730Z,13.03
2018-04-14T01:08:08.257Z,14.47
2018-04-14T01:10:35.800Z,14.07
2018-04-14T01:13:03.324Z,14.17
2018-04-14T01:15:30.882Z,13.60
2018-04-14T01:17:58.417Z,14.17
2018-04-14T01:20:25.956Z,13.83
2018-04-14T01:22:53.486Z,12.97
2018-04-14T01:25:21.787Z,13.00
2018-04-14T01:27:49.312Z,13.20
2018-04-14T01:30:16.847Z,13.40
2018-04-14T01:32:44.379Z,13.33
2018-04-14T01:35:11.915Z,14.07
2018-04-14T01:37:39.447Z,14.00
2018-04-14T01:40:06.993Z,13.27
2018-04-14T01:42:34.518Z,14.00
2018-04-14T01:45:02.061Z,13.57
2018-04-14T01:47:29.592Z,14.47
2018-04-14T01:49:57.889Z,13.27
2018-04-14T01:52:25.447Z,14.83
2018-04-14T01:54:52.971Z,14.70
2018-04-14T01:57:20.516Z,14.17
2018-04-14T01:59:48.053Z,14.80
2018-04-14T02:02:15.752Z,12.70
2018-04-14T02:04:43.304Z,13.47
2018-04-14T02:07:11.667Z,14.00
2018-04-14T02:09:39.200Z,15.07
2018-04-14T02:12:06.754Z,14.30
2018-04-14T02:14:34.281Z,14.63
2018-04-14T02:17:01.838Z,14.73
2018-04-14T02:19:29.365Z,15.10
2018-04-14T02:21:57.696Z,15.50
2018-04-14T02:24:25.254Z,14.67
2018-04-14T02:26:52.792Z,16.93
2018-04-14T02:29:20.384Z,22.97
2018-04-14T02:31:47.940Z,22.40
2018-04-14T02:34:15.471Z,20.17
2018-04-14T02:36:43.780Z,20.43
2018-04-14T02:39:11.310Z,19.53
2018-04-14T02:41:38.861Z,19.77
2018-04-14T02:44:06.391Z,20.07
2018-04-14T02:46:33.925Z,20.90
2018-04-14T02:49:01.483Z,21.83
2018-04-14T02:51:29.031Z,19.77
2018-04-14T02:53:56.577Z,21.63
2018-04-14T02:56:24.131Z,21.80
2018-04-14T02:58:51.676Z,22.70
2018-04-14T03:01:19.296Z,22.70
2018-04-14T03:03:46.852Z,22.53
2018-04-14T03:06:15.177Z,22.93
2018-04-14T03:08:42.761Z,24.70
2018-04-14T03:11:10.321Z,28.17
2018-04-14T03:13:37.873Z,31.70
2018-04-14T03:16:05.901Z,33.27
2018-04-14T03:18:33.465Z,34.53
2018-04-14T03:21:01.008Z,35.03
2018-04-14T03:23:28.574Z,35.83
2018-04-14T03:25:56.106Z,33.53
2018-04-14T03:28:24.459Z,32.67
2018-04-14T03:30:51.993Z,33.67
2018-04-14T03:33:19.554Z,32.77
2018-04-14T03:35:47.088Z,32.30
2018-04-14T03:38:14.632Z,33.20
2018-04-14T03:40:42.160Z,29.40
2018-04-14T03:43:09.718Z,32.73
2018-04-14T03:45:37.291Z,32.07
2018-04-14T03:48:05.610Z,34.90
2018-04-14T03:50:33.181Z,30.77
2018-04-14T03:53:00.708Z,30.97
2018-04-14T03:55:28.261Z,32.17
2018-04-14T03:57:55.806Z,31.77
2018-04-14T04:00:23.382Z,33.20
2018-04-14T04:02:50.931Z,33.23
2018-04-14T04:05:18.479Z,35.17
2018-04-14T04:07:46.778Z,36.43
2018-04-14T04:10:14.337Z,37.07
2018-04-14T04:12:41.885Z,36.33
2018-04-14T04:15:09.427Z,39.93
2018-04-14T04:17:37.738Z,42.23
2018-04-14T04:20:17.193Z,45.57
2018-04-14T04:22:56.381Z,44.10
2018-04-14T04:25:31.453Z,46.53
2018-04-14T04:27:58.990Z,47.03
2018-04-14T04:30:26.973Z,47.00
2018-04-14T04:32:54.505Z,51.20
2018-04-14T04:35:22.053Z,45.70
2018-04-14T04:37:49.581Z,46.83
2018-04-14T04:40:17.121Z,46.37
2018-04-14T04:42:44.680Z,46.50
2018-04-14T04:45:13.285Z,42.47
2018-04-14T04:47:40.838Z,41.53
2018-04-14T04:50:08.367Z,40.53
2018-04-14T04:52:35.916Z,39.90
2018-04-14T04:55:03.456Z,40.03
2018-04-14T04:57:31.773Z,38.73
2018-04-14T04:59:59.322Z,38.10
2018-04-14T05:02:26.865Z,38.93
2018-04-14T05:04:54.389Z,38.13
2018-04-14T05:07:21.936Z,39.33
2018-04-14T05:09:49.460Z,38.83
2018-04-14T05:12:17.017Z,37.83
2018-04-14T05:14:44.537Z,39.40
2018-04-14T05:17:12.083Z,38.50
2018-04-14T05:19:39.623Z,38.07
2018-04-14T05:22:07.288Z,39.83
2018-04-14T05:24:34.814Z,39.47
2018-04-14T05:27:02.368Z,39.13
2018-04-14T05:29:29.901Z,40.87
2018-04-14T05:31:57.449Z,38.40
2018-04-14T05:34:24.999Z,40.67
2018-04-14T05:36:52.549Z,40.33
2018-04-14T05:39:20.076Z,38.93
2018-04-14T05:41:47.633Z,39.10
2018-04-14T05:44:15.179Z,38.17
2018-04-14T05:46:42.730Z,37.93
2018-04-14T05:49:10.278Z,34.43
2018-04-14T05:51:37.835Z,37.17
2018-04-14T05:54:06.364Z,36.67
2018-04-14T05:56:34.727Z,35.03
2018-04-14T05:59:02.279Z,36.97
2018-04-14T06:01:29.815Z,36.17
2018-04-14T06:03:57.420Z,37.10
2018-04-14T06:06:24.961Z,36.90
2018-04-14T06:08:53.277Z,36.03
2018-04-14T06:11:20.824Z,35.53
2018-04-14T06:13:48.465Z,36.77
2018-04-14T06:16:15.988Z,35.53
2018-04-14T06:18:43.727Z,34.63
2018-04-14T06:21:12.019Z,36.53
2018-04-14T06:23:39.579Z,36.37
2018-04-14T06:26:07.128Z,39.20
2018-04-14T06:28:34.875Z,39.00
2018-04-14T06:31:02.422Z,39.23
2018-04-14T06:33:29.971Z,45.30
2018-04-14T06:35:57.504Z,46.53
2018-04-14T06:38:25.856Z,47.47
2018-04-14T06:40:53.671Z,50.33
2018-04-14T06:43:22.263Z,49.27
2018-04-14T06:45:50.573Z,50.50
2018-04-14T06:48:18.207Z,53.50
2018-04-14T06:50:45.747Z,53.27
2018-04-14T06:53:13.272Z,51.90
2018-04-14T06:55:41.398Z,52.33
2018-04-14T06:58:08.920Z,54.27
2018-04-14T07:00:38.023Z,55.20
2018-04-14T07:03:06.090Z,55.53
2018-04-14T07:05:33.633Z,55.00
2018-04-14T07:08:01.944Z,54.27
2018-04-14T07:10:29.507Z,56.67
2018-04-14T07:12:57.821Z,55.70
2018-04-14T07:15:25.376Z,55.03
2018-04-14T07:17:52.904Z,53.30
2018-04-14T07:20:21.270Z,52.10
2018-04-14T07:22:48.804Z,50.53
2018-04-14T07:25:16.361Z,46.77
2018-04-14T07:27:44.676Z,45.97
2018-04-14T07:30:12.598Z,43.07
2018-04-14T07:32:40.315Z,39.33
2018-04-14T07:35:07.861Z,37.63
2018-04-14T07:37:35.455Z,37.60
2018-04-14T07:40:02.984Z,37.83
2018-04-14T07:42:30.541Z,34.03
2018-04-14T07:44:58.155Z,35.30
2018-04-14T07:47:25.656Z,32.63
2018-04-14T07:49:53.209Z,33.83
2018-04-14T07:52:20.745Z,33.73
2018-04-14T07:54:48.313Z,32.53
2018-04-14T07:57:15.853Z,32.40
2018-04-14T07:59:43.375Z,31.47
2018-04-14T08:02:10.955Z,30.83
2018-04-14T08:04:38.476Z,30.83
2018-04-14T08:07:06.008Z,31.57
2018-04-14T08:09:33.548Z,29.17
2018-04-14T08:12:01.410Z,29.90
2018-04-14T08:14:28.957Z,31.13
2018-04-14T08:16:57.277Z,31.70
2018-04-14T08:19:24.801Z,31.23
2018-04-14T08:21:52.349Z,29.30
2018-04-14T08:24:20.655Z,27.90
2018-04-14T08:26:48.217Z,28.90
2018-04-14T08:29:15.757Z,27.57
2018-04-14T08:31:43.312Z,28.20
2018-04-14T08:34:10.847Z,27.53
2018-04-14T08:36:38.394Z,27.33
2018-04-14T08:39:05.930Z,27.37
2018-04-14T08:41:33.486Z,25.50
2018-04-14T08:44:01.016Z,23.57
2018-04-14T08:46:28.569Z,24.50
2018-04-14T08:48:56.113Z,25.00
2018-04-14T08:51:23.691Z,23.67
2018-04-14T08:53:51.326Z,25.13
2018-04-14T08:56:18.913Z,24.87
2018-04-14T08:58:46.457Z,23.50
2018-04-14T09:01:14.191Z,24.37
2018-04-14T09:03:42.525Z,23.40
2018-04-14T09:06:10.085Z,22.43
2018-04-14T09:08:37.848Z,23.23
2018-04-14T09:11:05.777Z,23.47
2018-04-14T09:13:33.328Z,21.93
2018-04-14T09:16:00.863Z,22.77
2018-04-14T09:18:29.251Z,21.93
2018-04-14T09:20:57.549Z,22.63
2018-04-14T09:23:25.109Z,21.73
2018-04-14T09:25:52.667Z,21.67
2018-04-14T09:28:20.308Z,21.03
2018-04-14T09:30:47.835Z,20.27
2018-04-14T09:33:15.376Z,20.43
2018-04-14T09:35:42.952Z,20.63
2018-04-14T09:38:10.603Z,21.30
2018-04-14T09:40:38.139Z,21.63
2018-04-14T09:43:05.692Z,21.13
2018-04-14T09:45:33.237Z,21.40
2018-04-14T09:48:00.781Z,21.53
2018-04-14T09:50:28.322Z,21.43
2018-04-14T09:52:56.645Z,22.13
2018-04-14T09:55:24.178Z,21.00
2018-04-14T09:57:51.782Z,21.10
2018-04-14T10:00:24.996Z,20.13
2018-04-14T10:02:52.575Z,20.33
2018-04-14T10:05:20.855Z,19.43
2018-04-14T10:07:49.976Z,20.17
2018-04-14T10:10:17.556Z,18.80
2018-04-14T10:12:45.111Z,18.33
2018-04-14T10:15:12.666Z,18.77
2018-04-14T10:17:40.196Z,18.97
2018-04-14T10:20:07.746Z,19.17
2018-04-14T10:22:35.285Z,18.30
2018-04-14T10:25:02.836Z,19.60
2018-04-14T10:27:31.136Z,18.87
2018-04-14T10:29:58.681Z,18.67
2018-04-14T10:32:27.469Z,19.17
2018-04-14T10:34:55.792Z,18.23
2018-04-14T10:37:23.335Z,17.97
2018-04-14T10:39:50.906Z,17.60
2018-04-14T10:42:18.445Z,17.33
2018-04-14T10:44:45.993Z,18.00
2018-04-14T10:47:13.529Z,18.53
2018-04-14T10:49:41.846Z,17.70
2018-04-14T10:52:09.375Z,18.50
2018-04-14T10:54:36.931Z,18.30
2018-04-14T10:57:04.489Z,17.60
2018-04-14T10:59:32.094Z,17.47
2018-04-14T11:01:59.626Z,18.30
2018-04-14T11:04:27.185Z,16.80
2018-04-14T11:06:54.720Z,17.07
2018-04-14T11:09:22.265Z,17.93
2018-04-14T11:11:50.560Z,17.20
2018-04-14T11:14:18.112Z,17.13
2018-04-14T11:16:45.653Z,16.57
2018-04-14T11:19:14.017Z,17.23
2018-04-14T11:21:41.553Z,16.40
2018-04-14T11:24:09.101Z,16.13
2018-04-14T11:26:36.628Z,17.27
2018-04-14T11:29:04.151Z,17.30
2018-04-14T11:31:31.697Z,18.10
2018-04-14T11:33:59.232Z,17.97
2018-04-14T11:36:26.782Z,17.60
2018-04-14T11:38:54.317Z,19.53
2018-04-14T11:41:21.877Z,19.27
2018-04-14T11:43:49.412Z,19.80
2018-04-14T11:46:17.749Z,19.40
2018-04-14T11:48:45.305Z,21.03
2018-04-14T11:51:12.912Z,19.63
2018-04-14T11:53:40.444Z,19.40
2018-04-14T11:56:07.985Z,18.80
2018-04-14T11:58:35.535Z,20.07
2018-04-14T12:01:03.099Z,18.30
2018-04-14T12:03:30.628Z,17.97
2018-04-14T12:05:58.180Z,15.80
2018-04-14T12:08:25.709Z,16.23
2018-04-14T12:10:54.110Z,14.77
2018-04-14T12:13:21.657Z,15.93
2018-04-14T12:15:49.973Z,16.80
2018-04-14T12:18:17.508Z,14.37
2018-04-14T12:20:45.059Z,13.30
2018-04-14T12:23:12.645Z,12.40
2018-04-14T12:25:40.213Z,11.30
2018-04-14T12:28:07.740Z,9.37
2018-04-14T12:30:36.113Z,8.97
2018-04-14T12:33:03.651Z,9.00
2018-04-14T12:35:31.237Z,9.43
2018-04-14T12:37:59.068Z,9.63
2018-04-14T12:40:26.592Z,9.70
2018-04-14T12:42:54.147Z,8.50
2018-04-14T12:45:21.685Z,8.63
2018-04-14T12:47:49.232Z,7.90
2018-04-14T12:50:16.794Z,8.37
2018-04-14T12:52:44.344Z,8.90
2018-04-14T12:55:11.868Z,8.47
2018-04-14T12:57:39.421Z,8.13
2018-04-14T13:00:06.957Z,7.87
2018-04-14T13:02:34.522Z,11.80
2018-04-14T13:05:02.055Z,11.40
2018-04-14T13:07:29.605Z,12.50
2018-04-14T13:09:57.901Z,13.87
2018-04-14T13:12:25.446Z,14.43
2018-04-14T13:14:52.977Z,14.80
2018-04-14T13:17:20.539Z,14.53
2018-04-14T13:19:48.072Z,15.50
2018-04-14T13:22:15.761Z,16.93
2018-04-14T13:24:43.347Z,18.40
2018-04-14T13:27:10.863Z,19.27
2018-04-14T13:29:39.183Z,21.47
2018-04-14T13:32:06.743Z,21.93
2018-04-14T13:34:34.272Z,22.27
2018-04-14T13:37:01.850Z,21.77
2018-04-14T13:39:29.418Z,20.67
2018-04-14T13:41:56.995Z,20.13
2018-04-14T13:44:24.541Z,21.67
2018-04-14T13:46:52.162Z,21.13
2018-04-14T13:49:19.689Z,21.30
2018-04-14T13:51:47.247Z,18.43
2018-04-14T13:54:15.569Z,20.10
2018-04-14T13:56:43.133Z,19.47
2018-04-14T13:59:10.703Z,19.90
2018-04-14T14:01:38.249Z,19.43
2018-04-14T14:04:05.844Z,20.63
2018-04-14T14:06:33.430Z,18.77
2018-04-14T14:09:00.979Z,19.30
2018-04-14T14:11:29.324Z,18.13
2018-04-14T14:13:56.872Z,19.10
2018-04-14T14:16:24.400Z,18.43
2018-04-14T14:18:51.950Z,18.47
2018-04-14T14:21:19.521Z,19.43
2018-04-14T14:23:47.072Z,18.60
2018-04-14T14:26:14.633Z,17.67
2018-04-14T14:28:42.232Z,17.17
2018-04-14T14:31:09.780Z,19.63
2018-04-14T14:33:37.329Z,19.53
2018-04-14T14:36:04.866Z,19.83
2018-04-14T14:38:32.423Z,19.00
2018-04-14T14:40:59.958Z,19.03
2018-04-14T14:43:27.504Z,19.30
2018-04-14T14:45:55.032Z,18.77
2018-04-14T14:48:22.615Z,18.07
2018-04-14T14:50:50.168Z,18.17
2018-04-14T14:53:17.691Z,18.40
2018-04-14T14:55:45.268Z,17.93
2018-04-14T14:58:12.830Z,17.80
2018-04-14T15:00:40.377Z,18.17
2018-04-14T15:03:07.904Z,17.13
2018-04-14T15:05:35.466Z,16.83
2018-04-14T15:08:03.010Z,16.77
2018-04-14T15:10:30.556Z,17.67
2018-04-14T15:12:58.103Z,17.83
2018-04-14T15:15:25.647Z,18.77
2018-04-14T15:17:53.191Z,17.93
2018-04-14T15:20:20.745Z,18.37
2018-04-14T15:22:48.272Z,17.50
2018-04-14T15:25:15.866Z,17.67
2018-04-14T15:27:43.380Z,18.07
2018-04-14T15:30:10.923Z,18.30
2018-04-14T15:32:38.499Z,16.90
2018-04-14T15:35:06.045Z,16.50
2018-04-14T15:37:33.572Z,18.20
2018-04-14T15:40:01.112Z,18.70
2018-04-14T15:42:28.650Z,18.53
2018-04-14T15:44:56.209Z,18.70
2018-04-14T15:47:23.762Z,17.00
2018-04-14T15:49:51.308Z,17.93
2018-04-14T15:52:18.845Z,18.30
2018-04-14T15:54:46.401Z,17.50
2018-04-14T15:57:13.935Z,19.93
2018-04-14T15:59:41.476Z,19.40
2018-04-14T16:02:09.023Z,18.80
2018-04-14T16:04:36.595Z,20.17
2018-04-14T16:07:04.142Z,18.57
2018-04-14T16:09:31.678Z,17.87
2018-04-14T16:11:59.232Z,17.80
2018-04-14T16:14:26.755Z,19.10
2018-04-14T16:16:55.073Z,20.33
2018-04-14T16:19:22.613Z,18.67
2018-04-14T16:21:50.172Z,18.87
2018-04-14T16:24:17.722Z,17.97
2018-04-14T16:26:45.274Z,19.60
2018-04-14T16:29:13.581Z,18.70
2018-04-14T16:31:41.124Z,20.40
2018-04-14T16:34:08.653Z,19.27
2018-04-14T16:36:36.968Z,19.10
2018-04-14T16:39:04.507Z,17.30
2018-04-14T16:41:32.075Z,16.63
2018-04-14T16:43:59.610Z,19.03
2018-04-14T16:46:28.608Z,17.07
2018-04-14T16:48:56.906Z,17.87
2018-04-14T16:51:24.450Z,17.07
2018-04-14T16:53:51.976Z,17.00
2018-04-14T16:56:19.528Z,17.53
2018-04-14T16:58:47.061Z,18.17
2018-04-14T17:01:14.672Z,19.17
2018-04-14T17:03:42.197Z,18.90
2018-04-14T17:06:09.736Z,20.23
2018-04-14T17:08:37.260Z,15.77
2018-04-14T17:11:04.812Z,16.10
2018-04-14T17:13:32.356Z,14.87
2018-04-14T17:15:59.883Z,16.73
2018-04-14T17:18:27.430Z,17.77
2018-04-14T17:20:54.956Z,19.03
2018-04-14T17:23:22.512Z,18.17
2018-04-14T17:25:50.045Z,19.10
2018-04-14T17:28:18.365Z,17.53
2018-04-14T17:30:45.900Z,20.37
2018-04-14T17:33:13.485Z,20.33
2018-04-14T17:35:41.038Z,18.33
2018-04-14T17:38:08.630Z,21.23
2018-04-14T17:40:36.228Z,20.87
2018-04-14T17:43:03.979Z,20.43
2018-04-14T17:45:31.520Z,20.40
2018-04-14T17:47:59.117Z,20.40
2018-04-14T17:50:26.673Z,20.23
2018-04-14T17:52:54.220Z,20.50
2018-04-14T17:55:22.535Z,18.90
2018-04-14T17:57:50.077Z,20.67
2018-04-14T18:00:17.602Z,22.17
2018-04-14T18:02:45.917Z,21.30
2018-04-14T18:05:13.478Z,21.10
2018-04-14T18:07:41.015Z,20.47
2018-04-14T18:10:08.569Z,18.67
2018-04-14T18:12:36.130Z,19.73
2018-04-14T18:15:03.672Z,26.50
2018-04-14T18:17:31.245Z,22.90
2018-04-14T18:19:58.784Z,22.40
2018-04-14T18:22:27.109Z,21.30
2018-04-14T18:24:54.642Z,21.63
2018-04-14T18:27:22.187Z,20.60
2018-04-14T18:29:49.777Z,22.30
2018-04-14T18:32:17.330Z,21.70
2018-04-14T18:34:44.875Z,21.30
2018-04-14T18:37:12.413Z,20.83
2018-04-14T18:39:40.757Z,19.47
2018-04-14T18:42:08.302Z,20.63
2018-04-14T18:44:35.877Z,17.97
2018-04-14T18:47:03.400Z,67.97
2018-04-14T18:49:30.949Z,23.10
2018-04-14T18:51:58.481Z,27.10
2018-04-14T18:54:26.025Z,22.03
2018-04-14T18:56:53.572Z,25.90
2018-04-14T18:59:21.926Z,25.67
2018-04-14T19:01:49.479Z,26.17
2018-04-14T19:04:17.044Z,28.87
2018-04-14T19:06:45.609Z,31.30
2018-04-14T19:09:13.170Z,28.47
2018-04-14T19:11:40.695Z,23.97
2018-04-14T19:14:08.485Z,24.57
2018-04-14T19:16:36.043Z,26.10
2018-04-14T19:19:03.581Z,29.97
2018-04-14T19:21:31.151Z,27.87
2018-04-14T19:23:58.680Z,26.10
2018-04-14T19:26:26.993Z,25.20
2018-04-14T19:28:54.541Z,27.00
2018-04-14T19:31:22.113Z,29.37
2018-04-14T19:33:49.636Z,30.33
2018-04-14T19:36:17.615Z,26.67
2018-04-14T19:38:45.169Z,26.67
2018-04-14T19:41:12.724Z,32.27
2018-04-14T19:43:41.044Z,30.50
2018-04-14T19:46:08.604Z,33.67
2018-04-14T19:48:36.959Z,36.23
2018-04-14T19:51:05.256Z,38.87
2018-04-14T19:53:32.787Z,37.50
2018-04-14T19:56:00.356Z,40.20
2018-04-14T19:58:27.887Z,39.50
2018-04-14T20:00:55.431Z,41.00
2018-04-14T20:03:23.724Z,41.70
2018-04-14T20:05:51.293Z,35.20
2018-04-14T20:08:18.828Z,38.83
2018-04-14T20:10:47.145Z,39.53
2018-04-14T20:13:14.679Z,37.93
2018-04-14T20:15:42.246Z,34.27
2018-04-14T20:18:09.773Z,34.53
2018-04-14T20:20:38.062Z,33.70
2018-04-14T20:23:05.617Z,34.93
2018-04-14T20:25:33.184Z,38.83
2018-04-14T20:28:00.753Z,46.47
2018-04-14T20:30:28.274Z,36.70
2018-04-14T20:32:55.883Z,47.67
2018-04-14T20:35:23.448Z,49.00
2018-04-14T20:37:50.986Z,44.40
2018-04-14T20:40:18.526Z,42.97
2018-04-14T20:42:46.080Z,44.80
2018-04-14T20:45:13.622Z,40.13
2018-04-14T20:47:41.963Z,41.93
2018-04-14T20:50:09.503Z,45.03
2018-04-14T20:52:37.088Z,38.10
2018-04-14T20:55:04.660Z,42.57
2018-04-14T20:57:32.199Z,41.57
2018-04-14T20:59:59.738Z,41.70
2018-04-14T21:02:28.089Z,38.03
2018-04-14T21:04:55.624Z,39.60
2018-04-14T21:07:23.180Z,38.43
2018-04-14T21:09:51.484Z,35.77
2018-04-14T21:12:19.044Z,37.60
2018-04-14T21:14:46.568Z,44.17
2018-04-14T21:17:14.129Z,44.50
2018-04-14T21:19:41.706Z,50.00
2018-04-14T21:22:09.302Z,49.73
2018-04-14T21:24:36.841Z,43.87
2018-04-14T21:27:04.405Z,41.67
2018-04-14T21:29:31.933Z,41.13
2018-04-14T21:31:59.480Z,42.60
2018-04-14T21:34:27.802Z,40.70
2018-04-14T21:36:55.350Z,40.87
2018-04-14T21:39:22.902Z,43.10
2018-04-14T21:41:50.424Z,39.67
2018-04-14T21:44:17.989Z,45.80
2018-04-14T21:46:45.558Z,43.20
2018-04-14T21:49:13.891Z,37.77
2018-04-14T21:51:41.415Z,40.73
2018-04-14T21:54:08.986Z,39.20
2018-04-14T21:56:36.542Z,37.50
2018-04-14T21:59:04.165Z,33.33
2018-04-14T22:01:31.784Z,35.23
2018-04-14T22:03:59.341Z,32.60
2018-04-14T22:06:26.890Z,39.63
2018-04-14T22:08:54.467Z,40.33
2018-04-14T22:11:22.012Z,38.43
2018-04-14T22:13:49.577Z,39.10
2018-04-14T22:16:17.133Z,41.73
2018-04-14T22:18:44.671Z,43.20
2018-04-14T22:21:12.201Z,45.83
2018-04-14T22:23:39.754Z,41.37
2018-04-14T22:26:07.304Z,46.20
2018-04-14T22:28:35.625Z,49.27
2018-04-14T22:31:03.161Z,45.17
2018-04-14T22:33:30.715Z,41.73
2018-04-14T22:35:58.262Z,45.40
2018-04-14T22:38:25.854Z,47.80
2018-04-14T22:40:53.383Z,54.27
2018-04-14T22:43:20.928Z,45.30
2018-04-14T22:45:48.531Z,46.07
2018-04-14T22:48:16.073Z,41.77
2018-04-14T22:50:43.617Z,41.37
2018-04-14T22:53:11.149Z,44.63
2018-04-14T22:55:39.457Z,36.63
2018-04-14T22:58:07.003Z,38.27
2018-04-14T23:00:34.561Z,36.73
2018-04-14T23:03:02.096Z,37.33
2018-04-14T23:05:29.633Z,43.30
2018-04-14T23:07:57.174Z,38.30
2018-04-14T23:10:24.727Z,37.73
2018-04-14T23:12:52.261Z,33.03
2018-04-14T23:15:19.856Z,35.63
2018-04-14T23:17:47.376Z,33.97
2018-04-14T23:20:14.924Z,32.43
2018-04-14T23:22:42.463Z,34.83
2018-04-14T23:25:10.768Z,42.00
2018-04-14T23:27:38.303Z,31.63
2018-04-14T23:30:06.632Z,32.60
2018-04-14T23:32:34.444Z,30.47
2018-04-14T23:35:02.756Z,35.63
2018-04-14T23:37:30.307Z,34.43
2018-04-14T23:39:57.871Z,34.50
2018-04-14T23:42:25.404Z,37.80
2018-04-14T23:44:53.369Z,39.37
2018-04-14T23:47:20.905Z,29.87
2018-04-14T23:49:48.449Z,31.23
2018-04-14T23:52:15.969Z,32.87
2018-04-14T23:54:43.550Z,28.30
2018-04-14T23:57:11.084Z,34.27
2018-04-14T23:59:38.617Z,31.87
